sensor_id;sensor_type;location;lat;lon;timestamp;P1;durP1;ratioP1;P2;durP2;ratioP2
595;SDS011;19946;49.306;11.350;2023-09-19T00:02:36;0.40;;;0.40;;
595;SDS011;19946;49.306;11.350;2023-09-19T00:05:37;0.50;;;0.50;;
595;SDS011;19946;49.306;11.350;2023-09-19T00:08:38;0.50;;;0.50;;
595;SDS011;19946;49.306;11.350;2023-09-19T00:11:38;0.50;;;0.50;;
595;SDS011;19946;49.306;11.350;2023-09-19T00:14:39;0.50;;;0.50;;
595;SDS011;19946;49.306;11.350;2023-09-19T00:17:39;0.52;;;0.52;;
595;SDS011;19946;49.306;11.350;2023-09-19T00:20:40;0.50;;;0.50;;
595;SDS011;19946;49.306;11.350;2023-09-19T00:23:42;0.80;;;0.80;;
595;SDS011;19946;49.306;11.350;2023-09-19T00:26:42;0.70;;;0.70;;
595;SDS011;19946;49.306;11.350;2023-09-19T00:29:43;0.90;;;0.90;;
595;SDS011;19946;49.306;11.350;2023-09-19T00:32:44;0.30;;;0.30;;
595;SDS011;19946;49.306;11.350;2023-09-19T00:35:48;0.30;;;0.30;;
595;SDS011;19946;49.306;11.350;2023-09-19T00:38:48;0.30;;;0.30;;
595;SDS011;19946;49.306;11.350;2023-09-19T00:41:48;0.30;;;0.30;;
595;SDS011;19946;49.306;11.350;2023-09-19T00:44:49;0.40;;;0.40;;
595;SDS011;19946;49.306;11.350;2023-09-19T00:47:51;0.50;;;0.50;;
595;SDS011;19946;49.306;11.350;2023-09-19T00:50:52;0.50;;;0.50;;
595;SDS011;19946;49.306;11.350;2023-09-19T00:53:53;0.70;;;0.70;;
595;SDS011;19946;49.306;11.350;2023-09-19T00:56:53;0.50;;;0.50;;
595;SDS011;19946;49.306;11.350;2023-09-19T00:59:54;0.70;;;0.70;;
595;SDS011;19946;49.306;11.350;2023-09-19T01:02:55;0.90;;;0.90;;
595;SDS011;19946;49.306;11.350;2023-09-19T01:05:56;1.27;;;1.27;;
595;SDS011;19946;49.306;11.350;2023-09-19T01:08:56;1.60;;;1.60;;
595;SDS011;19946;49.306;11.350;2023-09-19T01:11:58;1.13;;;1.13;;
595;SDS011;19946;49.306;11.350;2023-09-19T01:15:49;1.10;;;1.10;;
595;SDS011;19946;49.306;11.350;2023-09-19T01:22:00;0.60;;;0.60;;
595;SDS011;19946;49.306;11.350;2023-09-19T01:25:15;0.50;;;0.50;;
595;SDS011;19946;49.306;11.350;2023-09-19T01:31:38;0.50;;;0.50;;
595;SDS011;19946;49.306;11.350;2023-09-19T01:34:49;0.40;;;0.40;;
595;SDS011;19946;49.306;11.350;2023-09-19T01:37:50;0.50;;;0.50;;
595;SDS011;19946;49.306;11.350;2023-09-19T01:40:54;0.40;;;0.40;;
595;SDS011;19946;49.306;11.350;2023-09-19T01:43:56;0.40;;;0.40;;
595;SDS011;19946;49.306;11.350;2023-09-19T01:47:00;0.40;;;0.40;;
595;SDS011;19946;49.306;11.350;2023-09-19T01:50:07;0.40;;;0.40;;
595;SDS011;19946;49.306;11.350;2023-09-19T01:56:50;0.30;;;0.30;;
595;SDS011;19946;49.306;11.350;2023-09-19T01:59:52;0.40;;;0.40;;
595;SDS011;19946;49.306;11.350;2023-09-19T02:02:54;0.43;;;0.43;;
595;SDS011;19946;49.306;11.350;2023-09-19T02:05:58;0.60;;;0.60;;
595;SDS011;19946;49.306;11.350;2023-09-19T02:08:59;0.90;;;0.90;;
595;SDS011;19946;49.306;11.350;2023-09-19T02:11:59;0.90;;;0.90;;
595;SDS011;19946;49.306;11.350;2023-09-19T02:15:00;0.80;;;0.80;;
595;SDS011;19946;49.306;11.350;2023-09-19T02:18:00;0.60;;;0.60;;
595;SDS011;19946;49.306;11.350;2023-09-19T02:21:03;0.70;;;0.70;;
595;SDS011;19946;49.306;11.350;2023-09-19T02:24:04;0.70;;;0.70;;
595;SDS011;19946;49.306;11.350;2023-09-19T02:27:04;0.50;;;0.50;;
595;SDS011;19946;49.306;11.350;2023-09-19T02:30:05;0.43;;;0.43;;
595;SDS011;19946;49.306;11.350;2023-09-19T02:33:06;0.60;;;0.60;;
595;SDS011;19946;49.306;11.350;2023-09-19T02:36:06;0.60;;;0.60;;
595;SDS011;19946;49.306;11.350;2023-09-19T02:39:07;0.67;;;0.67;;
595;SDS011;19946;49.306;11.350;2023-09-19T02:42:08;0.60;;;0.60;;
595;SDS011;19946;49.306;11.350;2023-09-19T02:45:08;0.97;;;0.97;;
595;SDS011;19946;49.306;11.350;2023-09-19T02:48:09;0.90;;;0.90;;
595;SDS011;19946;49.306;11.350;2023-09-19T02:51:11;0.70;;;0.70;;
595;SDS011;19946;49.306;11.350;2023-09-19T02:54:12;0.60;;;0.60;;
595;SDS011;19946;49.306;11.350;2023-09-19T02:57:12;0.60;;;0.60;;
595;SDS011;19946;49.306;11.350;2023-09-19T03:00:16;0.40;;;0.40;;
595;SDS011;19946;49.306;11.350;2023-09-19T03:03:17;0.40;;;0.40;;
595;SDS011;19946;49.306;11.350;2023-09-19T03:06:18;0.40;;;0.40;;
595;SDS011;19946;49.306;11.350;2023-09-19T03:09:20;0.50;;;0.50;;
595;SDS011;19946;49.306;11.350;2023-09-19T03:12:21;0.50;;;0.50;;
595;SDS011;19946;49.306;11.350;2023-09-19T03:15:21;0.50;;;0.50;;
595;SDS011;19946;49.306;11.350;2023-09-19T03:18:24;0.50;;;0.50;;
595;SDS011;19946;49.306;11.350;2023-09-19T03:21:26;0.40;;;0.40;;
595;SDS011;19946;49.306;11.350;2023-09-19T03:24:30;0.50;;;0.50;;
595;SDS011;19946;49.306;11.350;2023-09-19T03:27:34;0.50;;;0.50;;
595;SDS011;19946;49.306;11.350;2023-09-19T03:30:35;0.50;;;0.50;;
595;SDS011;19946;49.306;11.350;2023-09-19T03:33:38;0.50;;;0.50;;
595;SDS011;19946;49.306;11.350;2023-09-19T03:36:38;0.40;;;0.40;;
595;SDS011;19946;49.306;11.350;2023-09-19T03:39:39;0.40;;;0.40;;
595;SDS011;19946;49.306;11.350;2023-09-19T03:42:40;0.40;;;0.40;;
595;SDS011;19946;49.306;11.350;2023-09-19T03:45:42;0.60;;;0.60;;
595;SDS011;19946;49.306;11.350;2023-09-19T03:48:43;0.40;;;0.40;;
595;SDS011;19946;49.306;11.350;2023-09-19T03:51:43;0.30;;;0.30;;
595;SDS011;19946;49.306;11.350;2023-09-19T03:54:44;0.20;;;0.20;;
595;SDS011;19946;49.306;11.350;2023-09-19T03:57:47;0.20;;;0.20;;
595;SDS011;19946;49.306;11.350;2023-09-19T04:00:48;0.30;;;0.30;;
595;SDS011;19946;49.306;11.350;2023-09-19T04:03:50;0.20;;;0.20;;
595;SDS011;19946;49.306;11.350;2023-09-19T04:06:52;0.20;;;0.20;;
595;SDS011;19946;49.306;11.350;2023-09-19T04:09:52;0.30;;;0.30;;
595;SDS011;19946;49.306;11.350;2023-09-19T04:12:54;0.20;;;0.20;;
595;SDS011;19946;49.306;11.350;2023-09-19T04:15:54;0.20;;;0.20;;
595;SDS011;19946;49.306;11.350;2023-09-19T04:18:56;0.20;;;0.20;;
595;SDS011;19946;49.306;11.350;2023-09-19T04:21:56;0.20;;;0.20;;
595;SDS011;19946;49.306;11.350;2023-09-19T04:24:56;0.20;;;0.20;;
595;SDS011;19946;49.306;11.350;2023-09-19T04:27:57;0.20;;;0.20;;
595;SDS011;19946;49.306;11.350;2023-09-19T04:30:57;0.20;;;0.20;;
595;SDS011;19946;49.306;11.350;2023-09-19T04:33:58;0.30;;;0.30;;
595;SDS011;19946;49.306;11.350;2023-09-19T04:37:05;0.30;;;0.30;;
595;SDS011;19946;49.306;11.350;2023-09-19T04:40:06;0.20;;;0.20;;
595;SDS011;19946;49.306;11.350;2023-09-19T04:43:07;0.30;;;0.30;;
595;SDS011;19946;49.306;11.350;2023-09-19T04:46:07;0.30;;;0.30;;
595;SDS011;19946;49.306;11.350;2023-09-19T04:49:07;0.30;;;0.30;;
595;SDS011;19946;49.306;11.350;2023-09-19T04:52:08;0.20;;;0.20;;
595;SDS011;19946;49.306;11.350;2023-09-19T04:55:09;0.20;;;0.20;;
595;SDS011;19946;49.306;11.350;2023-09-19T04:58:09;0.40;;;0.40;;
595;SDS011;19946;49.306;11.350;2023-09-19T05:01:11;0.30;;;0.30;;
595;SDS011;19946;49.306;11.350;2023-09-19T05:04:12;0.30;;;0.30;;
595;SDS011;19946;49.306;11.350;2023-09-19T05:07:13;0.27;;;0.27;;
595;SDS011;19946;49.306;11.350;2023-09-19T05:10:13;0.20;;;0.20;;
595;SDS011;19946;49.306;11.350;2023-09-19T05:13:14;0.20;;;0.20;;
595;SDS011;19946;49.306;11.350;2023-09-19T05:16:14;0.20;;;0.20;;
595;SDS011;19946;49.306;11.350;2023-09-19T05:19:14;0.30;;;0.30;;
595;SDS011;19946;49.306;11.350;2023-09-19T05:22:15;0.50;;;0.50;;
595;SDS011;19946;49.306;11.350;2023-09-19T05:25:15;0.60;;;0.60;;
595;SDS011;19946;49.306;11.350;2023-09-19T05:28:16;0.60;;;0.60;;
595;SDS011;19946;49.306;11.350;2023-09-19T05:31:17;0.40;;;0.40;;
595;SDS011;19946;49.306;11.350;2023-09-19T05:34:17;0.40;;;0.40;;
595;SDS011;19946;49.306;11.350;2023-09-19T05:37:17;0.40;;;0.40;;
595;SDS011;19946;49.306;11.350;2023-09-19T05:40:18;0.30;;;0.30;;
595;SDS011;19946;49.306;11.350;2023-09-19T05:43:18;0.30;;;0.30;;
595;SDS011;19946;49.306;11.350;2023-09-19T05:46:19;0.30;;;0.30;;
595;SDS011;19946;49.306;11.350;2023-09-19T05:49:19;0.40;;;0.40;;
595;SDS011;19946;49.306;11.350;2023-09-19T05:52:21;0.50;;;0.50;;
595;SDS011;19946;49.306;11.350;2023-09-19T05:55:22;0.40;;;0.40;;
595;SDS011;19946;49.306;11.350;2023-09-19T05:58:25;0.40;;;0.40;;
595;SDS011;19946;49.306;11.350;2023-09-19T06:01:25;0.50;;;0.50;;
595;SDS011;19946;49.306;11.350;2023-09-19T06:04:25;0.70;;;0.70;;
595;SDS011;19946;49.306;11.350;2023-09-19T06:07:25;0.90;;;0.90;;
595;SDS011;19946;49.306;11.350;2023-09-19T06:10:27;0.60;;;0.60;;
595;SDS011;19946;49.306;11.350;2023-09-19T06:13:32;0.60;;;0.60;;
595;SDS011;19946;49.306;11.350;2023-09-19T06:16:33;0.60;;;0.60;;
595;SDS011;19946;49.306;11.350;2023-09-19T06:19:33;0.90;;;0.90;;
595;SDS011;19946;49.306;11.350;2023-09-19T06:22:34;0.50;;;0.50;;
595;SDS011;19946;49.306;11.350;2023-09-19T06:25:34;0.50;;;0.50;;
595;SDS011;19946;49.306;11.350;2023-09-19T06:28:34;0.87;;;0.87;;
595;SDS011;19946;49.306;11.350;2023-09-19T06:31:34;0.50;;;0.50;;
595;SDS011;19946;49.306;11.350;2023-09-19T06:34:35;0.40;;;0.40;;
595;SDS011;19946;49.306;11.350;2023-09-19T06:37:35;0.53;;;0.53;;
595;SDS011;19946;49.306;11.350;2023-09-19T06:40:35;0.40;;;0.40;;
595;SDS011;19946;49.306;11.350;2023-09-19T06:43:35;0.30;;;0.30;;
595;SDS011;19946;49.306;11.350;2023-09-19T06:46:36;0.30;;;0.30;;
595;SDS011;19946;49.306;11.350;2023-09-19T06:49:39;0.40;;;0.40;;
595;SDS011;19946;49.306;11.350;2023-09-19T06:52:40;0.40;;;0.40;;
595;SDS011;19946;49.306;11.350;2023-09-19T06:55:41;0.30;;;0.30;;
595;SDS011;19946;49.306;11.350;2023-09-19T06:58:43;0.30;;;0.30;;
595;SDS011;19946;49.306;11.350;2023-09-19T07:01:44;0.30;;;0.30;;
595;SDS011;19946;49.306;11.350;2023-09-19T07:04:44;0.60;;;0.60;;
595;SDS011;19946;49.306;11.350;2023-09-19T07:07:45;0.40;;;0.40;;
595;SDS011;19946;49.306;11.350;2023-09-19T07:10:45;0.40;;;0.40;;
595;SDS011;19946;49.306;11.350;2023-09-19T07:13:48;0.40;;;0.40;;
595;SDS011;19946;49.306;11.350;2023-09-19T07:16:48;0.50;;;0.50;;
595;SDS011;19946;49.306;11.350;2023-09-19T07:19:49;0.90;;;0.90;;
595;SDS011;19946;49.306;11.350;2023-09-19T07:22:50;1.30;;;1.30;;
595;SDS011;19946;49.306;11.350;2023-09-19T07:25:50;1.60;;;1.60;;
595;SDS011;19946;49.306;11.350;2023-09-19T07:28:51;1.20;;;1.20;;
595;SDS011;19946;49.306;11.350;2023-09-19T07:31:52;1.30;;;1.30;;
595;SDS011;19946;49.306;11.350;2023-09-19T07:34:52;2.00;;;2.00;;
595;SDS011;19946;49.306;11.350;2023-09-19T07:37:53;2.20;;;2.20;;
595;SDS011;19946;49.306;11.350;2023-09-19T07:40:53;2.10;;;2.10;;
595;SDS011;19946;49.306;11.350;2023-09-19T07:43:59;1.40;;;1.40;;
595;SDS011;19946;49.306;11.350;2023-09-19T07:47:00;1.40;;;1.40;;
595;SDS011;19946;49.306;11.350;2023-09-19T07:50:03;2.50;;;2.50;;
595;SDS011;19946;49.306;11.350;2023-09-19T07:53:03;2.20;;;2.20;;
595;SDS011;19946;49.306;11.350;2023-09-19T07:56:05;2.33;;;2.33;;
595;SDS011;19946;49.306;11.350;2023-09-19T07:59:05;2.40;;;2.40;;
595;SDS011;19946;49.306;11.350;2023-09-19T08:02:06;3.00;;;3.00;;
595;SDS011;19946;49.306;11.350;2023-09-19T08:05:09;3.10;;;3.10;;
595;SDS011;19946;49.306;11.350;2023-09-19T08:08:15;2.30;;;2.30;;
595;SDS011;19946;49.306;11.350;2023-09-19T08:11:15;2.70;;;2.70;;
595;SDS011;19946;49.306;11.350;2023-09-19T08:14:21;3.10;;;3.10;;
595;SDS011;19946;49.306;11.350;2023-09-19T08:17:22;2.80;;;2.80;;
595;SDS011;19946;49.306;11.350;2023-09-19T08:20:23;2.70;;;2.70;;
595;SDS011;19946;49.306;11.350;2023-09-19T08:23:23;2.90;;;2.90;;
595;SDS011;19946;49.306;11.350;2023-09-19T08:26:23;3.50;;;3.50;;
595;SDS011;19946;49.306;11.350;2023-09-19T08:29:24;2.70;;;2.70;;
595;SDS011;19946;49.306;11.350;2023-09-19T08:32:28;3.00;;;3.00;;
595;SDS011;19946;49.306;11.350;2023-09-19T08:35:28;3.60;;;3.60;;
595;SDS011;19946;49.306;11.350;2023-09-19T08:38:29;3.40;;;3.40;;
595;SDS011;19946;49.306;11.350;2023-09-19T08:41:29;3.40;;;3.40;;
595;SDS011;19946;49.306;11.350;2023-09-19T08:44:30;3.33;;;3.33;;
595;SDS011;19946;49.306;11.350;2023-09-19T08:47:33;3.77;;;3.77;;
595;SDS011;19946;49.306;11.350;2023-09-19T08:50:38;3.20;;;3.20;;
595;SDS011;19946;49.306;11.350;2023-09-19T08:54:01;3.40;;;3.40;;
595;SDS011;19946;49.306;11.350;2023-09-19T08:57:05;3.50;;;3.50;;
595;SDS011;19946;49.306;11.350;2023-09-19T09:00:08;3.90;;;3.90;;
595;SDS011;19946;49.306;11.350;2023-09-19T09:03:12;4.53;;;4.53;;
595;SDS011;19946;49.306;11.350;2023-09-19T09:06:13;3.30;;;3.30;;
595;SDS011;19946;49.306;11.350;2023-09-19T09:09:15;3.00;;;3.00;;
595;SDS011;19946;49.306;11.350;2023-09-19T09:12:15;3.50;;;3.50;;
595;SDS011;19946;49.306;11.350;2023-09-19T09:15:16;3.40;;;3.40;;
595;SDS011;19946;49.306;11.350;2023-09-19T09:18:19;3.10;;;3.10;;
595;SDS011;19946;49.306;11.350;2023-09-19T09:21:21;2.90;;;2.90;;
595;SDS011;19946;49.306;11.350;2023-09-19T09:24:30;2.50;;;2.50;;
595;SDS011;19946;49.306;11.350;2023-09-19T09:27:33;2.90;;;2.90;;
595;SDS011;19946;49.306;11.350;2023-09-19T09:30:34;3.50;;;3.50;;
595;SDS011;19946;49.306;11.350;2023-09-19T09:33:36;3.60;;;3.60;;
595;SDS011;19946;49.306;11.350;2023-09-19T09:36:37;4.20;;;4.20;;
595;SDS011;19946;49.306;11.350;2023-09-19T09:39:37;3.80;;;3.80;;
595;SDS011;19946;49.306;11.350;2023-09-19T09:42:38;4.40;;;4.40;;
595;SDS011;19946;49.306;11.350;2023-09-19T09:45:41;4.60;;;4.60;;
595;SDS011;19946;49.306;11.350;2023-09-19T09:52:14;5.30;;;5.30;;
595;SDS011;19946;49.306;11.350;2023-09-19T09:55:18;5.20;;;5.20;;
595;SDS011;19946;49.306;11.350;2023-09-19T09:58:20;5.57;;;5.57;;
595;SDS011;19946;49.306;11.350;2023-09-19T10:01:24;5.00;;;5.00;;
595;SDS011;19946;49.306;11.350;2023-09-19T10:04:27;5.30;;;5.30;;
595;SDS011;19946;49.306;11.350;2023-09-19T10:07:36;5.40;;;5.40;;
595;SDS011;19946;49.306;11.350;2023-09-19T10:10:41;5.20;;;5.20;;
595;SDS011;19946;49.306;11.350;2023-09-19T10:13:41;4.83;;;4.83;;
595;SDS011;19946;49.306;11.350;2023-09-19T10:16:46;4.80;;;4.80;;
595;SDS011;19946;49.306;11.350;2023-09-19T10:19:56;4.60;;;4.60;;
595;SDS011;19946;49.306;11.350;2023-09-19T10:23:01;4.77;;;4.77;;
595;SDS011;19946;49.306;11.350;2023-09-19T10:26:03;4.50;;;4.50;;
595;SDS011;19946;49.306;11.350;2023-09-19T10:29:06;4.50;;;4.50;;
595;SDS011;19946;49.306;11.350;2023-09-19T10:32:07;4.37;;;4.37;;
595;SDS011;19946;49.306;11.350;2023-09-19T10:35:09;4.20;;;4.20;;
595;SDS011;19946;49.306;11.350;2023-09-19T10:38:13;4.20;;;4.20;;
595;SDS011;19946;49.306;11.350;2023-09-19T10:41:14;3.93;;;3.93;;
595;SDS011;19946;49.306;11.350;2023-09-19T10:44:16;3.90;;;3.90;;
595;SDS011;19946;49.306;11.350;2023-09-19T10:47:20;4.40;;;4.40;;
595;SDS011;19946;49.306;11.350;2023-09-19T10:50:20;4.00;;;4.00;;
595;SDS011;19946;49.306;11.350;2023-09-19T10:53:24;4.20;;;4.20;;
595;SDS011;19946;49.306;11.350;2023-09-19T10:56:26;4.90;;;4.90;;
595;SDS011;19946;49.306;11.350;2023-09-19T10:59:27;3.70;;;3.70;;
595;SDS011;19946;49.306;11.350;2023-09-19T11:02:34;3.37;;;3.37;;
595;SDS011;19946;49.306;11.350;2023-09-19T11:05:36;3.17;;;3.17;;
595;SDS011;19946;49.306;11.350;2023-09-19T11:18:58;3.80;;;3.80;;
595;SDS011;19946;49.306;11.350;2023-09-19T11:22:01;3.60;;;3.60;;
595;SDS011;19946;49.306;11.350;2023-09-19T11:25:35;3.90;;;3.90;;
595;SDS011;19946;49.306;11.350;2023-09-19T11:31:41;3.30;;;3.30;;
595;SDS011;19946;49.306;11.350;2023-09-19T11:34:43;3.27;;;3.27;;
595;SDS011;19946;49.306;11.350;2023-09-19T11:40:47;3.90;;;3.90;;
595;SDS011;19946;49.306;11.350;2023-09-19T11:47:10;2.70;;;2.70;;
595;SDS011;19946;49.306;11.350;2023-09-19T11:50:11;3.30;;;3.30;;
595;SDS011;19946;49.306;11.350;2023-09-19T11:53:12;3.30;;;3.30;;
595;SDS011;19946;49.306;11.350;2023-09-19T11:56:12;3.10;;;3.10;;
595;SDS011;19946;49.306;11.350;2023-09-19T11:59:19;2.83;;;2.83;;
595;SDS011;19946;49.306;11.350;2023-09-19T12:02:30;3.10;;;3.10;;
595;SDS011;19946;49.306;11.350;2023-09-19T12:05:34;2.97;;;2.97;;
595;SDS011;19946;49.306;11.350;2023-09-19T12:08:35;3.20;;;3.20;;
595;SDS011;19946;49.306;11.350;2023-09-19T12:11:40;3.00;;;3.00;;
595;SDS011;19946;49.306;11.350;2023-09-19T12:14:43;2.80;;;2.80;;
595;SDS011;19946;49.306;11.350;2023-09-19T12:17:47;2.60;;;2.60;;
595;SDS011;19946;49.306;11.350;2023-09-19T12:20:48;2.40;;;2.40;;
595;SDS011;19946;49.306;11.350;2023-09-19T12:27:01;2.30;;;2.30;;
595;SDS011;19946;49.306;11.350;2023-09-19T12:30:01;2.27;;;2.27;;
595;SDS011;19946;49.306;11.350;2023-09-19T12:33:05;2.67;;;2.67;;
595;SDS011;19946;49.306;11.350;2023-09-19T12:36:19;2.20;;;2.20;;
595;SDS011;19946;49.306;11.350;2023-09-19T12:39:24;2.10;;;2.10;;
595;SDS011;19946;49.306;11.350;2023-09-19T12:42:26;2.60;;;2.60;;
595;SDS011;19946;49.306;11.350;2023-09-19T12:45:32;2.20;;;2.20;;
595;SDS011;19946;49.306;11.350;2023-09-19T12:48:35;2.40;;;2.40;;
595;SDS011;19946;49.306;11.350;2023-09-19T12:51:37;2.60;;;2.60;;
595;SDS011;19946;49.306;11.350;2023-09-19T12:54:41;2.00;;;2.00;;
595;SDS011;19946;49.306;11.350;2023-09-19T12:57:43;1.93;;;1.93;;
595;SDS011;19946;49.306;11.350;2023-09-19T13:00:44;1.80;;;1.80;;
595;SDS011;19946;49.306;11.350;2023-09-19T13:03:45;1.93;;;1.93;;
595;SDS011;19946;49.306;11.350;2023-09-19T13:06:49;1.70;;;1.70;;
595;SDS011;19946;49.306;11.350;2023-09-19T13:10:02;1.53;;;1.53;;
595;SDS011;19946;49.306;11.350;2023-09-19T13:13:22;1.80;;;1.80;;
595;SDS011;19946;49.306;11.350;2023-09-19T13:16:22;1.90;;;1.90;;
595;SDS011;19946;49.306;11.350;2023-09-19T13:19:43;2.07;;;2.07;;
595;SDS011;19946;49.306;11.350;2023-09-19T13:22:49;1.90;;;1.90;;
595;SDS011;19946;49.306;11.350;2023-09-19T13:25:53;1.80;;;1.80;;
595;SDS011;19946;49.306;11.350;2023-09-19T13:28:54;2.00;;;2.00;;
595;SDS011;19946;49.306;11.350;2023-09-19T13:31:54;1.67;;;1.67;;
595;SDS011;19946;49.306;11.350;2023-09-19T13:34:54;1.50;;;1.50;;
595;SDS011;19946;49.306;11.350;2023-09-19T13:37:55;1.70;;;1.70;;
595;SDS011;19946;49.306;11.350;2023-09-19T13:40:55;1.73;;;1.73;;
595;SDS011;19946;49.306;11.350;2023-09-19T13:43:56;1.80;;;1.80;;
595;SDS011;19946;49.306;11.350;2023-09-19T13:46:57;1.40;;;1.40;;
595;SDS011;19946;49.306;11.350;2023-09-19T13:49:57;1.70;;;1.70;;
595;SDS011;19946;49.306;11.350;2023-09-19T13:52:57;1.80;;;1.80;;
595;SDS011;19946;49.306;11.350;2023-09-19T13:56:00;1.40;;;1.40;;
595;SDS011;19946;49.306;11.350;2023-09-19T13:59:00;1.60;;;1.60;;
595;SDS011;19946;49.306;11.350;2023-09-19T14:02:01;1.60;;;1.60;;
595;SDS011;19946;49.306;11.350;2023-09-19T14:05:03;1.40;;;1.40;;
595;SDS011;19946;49.306;11.350;2023-09-19T14:08:04;1.50;;;1.50;;
595;SDS011;19946;49.306;11.350;2023-09-19T14:11:07;1.10;;;1.10;;
595;SDS011;19946;49.306;11.350;2023-09-19T14:14:08;1.10;;;1.10;;
595;SDS011;19946;49.306;11.350;2023-09-19T14:17:08;1.00;;;1.00;;
595;SDS011;19946;49.306;11.350;2023-09-19T14:20:09;1.10;;;1.10;;
595;SDS011;19946;49.306;11.350;2023-09-19T14:23:10;1.17;;;1.17;;
595;SDS011;19946;49.306;11.350;2023-09-19T14:26:10;1.10;;;1.10;;
595;SDS011;19946;49.306;11.350;2023-09-19T14:29:11;1.10;;;1.10;;
595;SDS011;19946;49.306;11.350;2023-09-19T14:32:11;1.00;;;1.00;;
595;SDS011;19946;49.306;11.350;2023-09-19T14:35:12;0.90;;;0.90;;
595;SDS011;19946;49.306;11.350;2023-09-19T14:38:14;1.10;;;1.10;;
595;SDS011;19946;49.306;11.350;2023-09-19T14:41:14;1.10;;;1.10;;
595;SDS011;19946;49.306;11.350;2023-09-19T14:44:14;1.03;;;1.03;;
595;SDS011;19946;49.306;11.350;2023-09-19T14:47:16;1.20;;;1.20;;
595;SDS011;19946;49.306;11.350;2023-09-19T14:50:17;1.10;;;1.10;;
595;SDS011;19946;49.306;11.350;2023-09-19T14:53:17;1.00;;;1.00;;
595;SDS011;19946;49.306;11.350;2023-09-19T14:56:17;0.90;;;0.90;;
595;SDS011;19946;49.306;11.350;2023-09-19T14:59:18;1.00;;;1.00;;
595;SDS011;19946;49.306;11.350;2023-09-19T15:02:20;1.40;;;1.40;;
595;SDS011;19946;49.306;11.350;2023-09-19T15:05:20;1.00;;;1.00;;
595;SDS011;19946;49.306;11.350;2023-09-19T15:08:21;1.00;;;1.00;;
595;SDS011;19946;49.306;11.350;2023-09-19T15:11:23;0.90;;;0.90;;
595;SDS011;19946;49.306;11.350;2023-09-19T15:14:23;0.90;;;0.90;;
595;SDS011;19946;49.306;11.350;2023-09-19T15:17:25;0.90;;;0.90;;
595;SDS011;19946;49.306;11.350;2023-09-19T15:20:25;0.80;;;0.80;;
595;SDS011;19946;49.306;11.350;2023-09-19T15:23:26;0.97;;;0.97;;
595;SDS011;19946;49.306;11.350;2023-09-19T15:26:26;0.87;;;0.87;;
595;SDS011;19946;49.306;11.350;2023-09-19T15:29:27;0.70;;;0.70;;
595;SDS011;19946;49.306;11.350;2023-09-19T15:32:27;0.90;;;0.90;;
595;SDS011;19946;49.306;11.350;2023-09-19T15:35:28;0.90;;;0.90;;
595;SDS011;19946;49.306;11.350;2023-09-19T15:38:28;0.70;;;0.70;;
595;SDS011;19946;49.306;11.350;2023-09-19T15:41:32;0.70;;;0.70;;
595;SDS011;19946;49.306;11.350;2023-09-19T15:44:32;0.70;;;0.70;;
595;SDS011;19946;49.306;11.350;2023-09-19T15:47:33;0.70;;;0.70;;
595;SDS011;19946;49.306;11.350;2023-09-19T15:50:34;0.70;;;0.70;;
595;SDS011;19946;49.306;11.350;2023-09-19T15:53:44;0.70;;;0.70;;
595;SDS011;19946;49.306;11.350;2023-09-19T15:56:45;0.80;;;0.80;;
595;SDS011;19946;49.306;11.350;2023-09-19T15:59:46;0.70;;;0.70;;
595;SDS011;19946;49.306;11.350;2023-09-19T16:02:47;0.70;;;0.70;;
595;SDS011;19946;49.306;11.350;2023-09-19T16:05:50;0.70;;;0.70;;
595;SDS011;19946;49.306;11.350;2023-09-19T16:08:52;0.60;;;0.60;;
595;SDS011;19946;49.306;11.350;2023-09-19T16:11:52;0.80;;;0.80;;
595;SDS011;19946;49.306;11.350;2023-09-19T16:14:53;0.70;;;0.70;;
595;SDS011;19946;49.306;11.350;2023-09-19T16:17:53;0.60;;;0.60;;
595;SDS011;19946;49.306;11.350;2023-09-19T16:21:00;0.60;;;0.60;;
595;SDS011;19946;49.306;11.350;2023-09-19T16:24:00;0.60;;;0.60;;
595;SDS011;19946;49.306;11.350;2023-09-19T16:27:00;0.80;;;0.80;;
595;SDS011;19946;49.306;11.350;2023-09-19T16:30:01;0.57;;;0.57;;
595;SDS011;19946;49.306;11.350;2023-09-19T16:33:02;0.67;;;0.67;;
595;SDS011;19946;49.306;11.350;2023-09-19T16:36:02;0.53;;;0.53;;
595;SDS011;19946;49.306;11.350;2023-09-19T16:39:03;0.60;;;0.60;;
595;SDS011;19946;49.306;11.350;2023-09-19T16:42:04;0.60;;;0.60;;
595;SDS011;19946;49.306;11.350;2023-09-19T16:45:05;0.50;;;0.50;;
595;SDS011;19946;49.306;11.350;2023-09-19T16:48:05;0.60;;;0.60;;
595;SDS011;19946;49.306;11.350;2023-09-19T16:51:07;0.50;;;0.50;;
595;SDS011;19946;49.306;11.350;2023-09-19T16:54:08;0.50;;;0.50;;
595;SDS011;19946;49.306;11.350;2023-09-19T16:57:08;0.53;;;0.53;;
595;SDS011;19946;49.306;11.350;2023-09-19T17:00:09;0.57;;;0.57;;
595;SDS011;19946;49.306;11.350;2023-09-19T17:03:10;0.40;;;0.40;;
595;SDS011;19946;49.306;11.350;2023-09-19T17:06:13;0.43;;;0.43;;
595;SDS011;19946;49.306;11.350;2023-09-19T17:09:15;0.43;;;0.43;;
595;SDS011;19946;49.306;11.350;2023-09-19T17:12:15;0.40;;;0.40;;
595;SDS011;19946;49.306;11.350;2023-09-19T17:15:16;0.50;;;0.50;;
595;SDS011;19946;49.306;11.350;2023-09-19T17:18:17;0.50;;;0.50;;
595;SDS011;19946;49.306;11.350;2023-09-19T17:21:18;0.50;;;0.50;;
595;SDS011;19946;49.306;11.350;2023-09-19T17:24:18;0.40;;;0.40;;
595;SDS011;19946;49.306;11.350;2023-09-19T17:27:18;0.40;;;0.40;;
595;SDS011;19946;49.306;11.350;2023-09-19T17:30:18;0.40;;;0.40;;
595;SDS011;19946;49.306;11.350;2023-09-19T17:33:19;0.40;;;0.40;;
595;SDS011;19946;49.306;11.350;2023-09-19T17:36:20;0.40;;;0.40;;
595;SDS011;19946;49.306;11.350;2023-09-19T17:39:21;0.40;;;0.40;;
595;SDS011;19946;49.306;11.350;2023-09-19T17:42:21;0.40;;;0.40;;
595;SDS011;19946;49.306;11.350;2023-09-19T17:45:23;0.30;;;0.30;;
595;SDS011;19946;49.306;11.350;2023-09-19T17:48:23;0.40;;;0.40;;
595;SDS011;19946;49.306;11.350;2023-09-19T17:51:23;0.40;;;0.40;;
595;SDS011;19946;49.306;11.350;2023-09-19T17:54:24;0.40;;;0.40;;
595;SDS011;19946;49.306;11.350;2023-09-19T17:57:25;0.20;;;0.20;;
595;SDS011;19946;49.306;11.350;2023-09-19T18:00:26;0.30;;;0.30;;
595;SDS011;19946;49.306;11.350;2023-09-19T18:03:26;0.40;;;0.40;;
595;SDS011;19946;49.306;11.350;2023-09-19T18:06:27;0.20;;;0.20;;
595;SDS011;19946;49.306;11.350;2023-09-19T18:09:27;0.20;;;0.20;;
595;SDS011;19946;49.306;11.350;2023-09-19T18:12:28;0.30;;;0.30;;
595;SDS011;19946;49.306;11.350;2023-09-19T18:15:28;0.20;;;0.20;;
595;SDS011;19946;49.306;11.350;2023-09-19T18:18:33;0.20;;;0.20;;
595;SDS011;19946;49.306;11.350;2023-09-19T18:21:33;0.20;;;0.20;;
595;SDS011;19946;49.306;11.350;2023-09-19T18:24:33;0.20;;;0.20;;
595;SDS011;19946;49.306;11.350;2023-09-19T18:27:35;0.20;;;0.20;;
595;SDS011;19946;49.306;11.350;2023-09-19T18:30:38;0.20;;;0.20;;
595;SDS011;19946;49.306;11.350;2023-09-19T18:33:38;0.20;;;0.20;;
595;SDS011;19946;49.306;11.350;2023-09-19T18:36:39;0.20;;;0.20;;
595;SDS011;19946;49.306;11.350;2023-09-19T18:39:40;0.10;;;0.10;;
595;SDS011;19946;49.306;11.350;2023-09-19T18:42:40;0.20;;;0.20;;
595;SDS011;19946;49.306;11.350;2023-09-19T18:45:41;0.20;;;0.20;;
595;SDS011;19946;49.306;11.350;2023-09-19T18:48:42;0.30;;;0.30;;
595;SDS011;19946;49.306;11.350;2023-09-19T18:51:44;0.33;;;0.33;;
595;SDS011;19946;49.306;11.350;2023-09-19T18:54:44;0.30;;;0.30;;
595;SDS011;19946;49.306;11.350;2023-09-19T18:57:45;0.30;;;0.30;;
595;SDS011;19946;49.306;11.350;2023-09-19T19:00:45;0.20;;;0.20;;
595;SDS011;19946;49.306;11.350;2023-09-19T19:03:45;0.20;;;0.20;;
595;SDS011;19946;49.306;11.350;2023-09-19T19:06:45;0.13;;;0.13;;
595;SDS011;19946;49.306;11.350;2023-09-19T19:09:45;0.20;;;0.20;;